sensor_id;sensor_type;location;lat;lon;timestamp;P1;durP1;ratioP1;P2;durP2;ratioP2
4365;SDS011;2196;47.422;9.656;2023-04-30T00:02:11;4.13;;;3.63;;
4365;SDS011;2196;47.422;9.656;2023-04-30T00:04:38;4.70;;;4.43;;
4365;SDS011;2196;47.422;9.656;2023-04-30T00:07:04;3.93;;;3.73;;
4365;SDS011;2196;47.422;9.656;2023-04-30T00:09:32;4.57;;;4.37;;
4365;SDS011;2196;47.422;9.656;2023-04-30T00:11:59;4.17;;;3.87;;
4365;SDS011;2196;47.422;9.656;2023-04-30T00:14:26;5.10;;;4.70;;
4365;SDS011;2196;47.422;9.656;2023-04-30T00:16:53;5.50;;;5.17;;
4365;SDS011;2196;47.422;9.656;2023-04-30T00:19:22;5.23;;;4.93;;
4365;SDS011;2196;47.422;9.656;2023-04-30T00:21:49;3.93;;;3.73;;
4365;SDS011;2196;47.422;9.656;2023-04-30T00:24:15;3.53;;;3.33;;
4365;SDS011;2196;47.422;9.656;2023-04-30T00:26:42;5.40;;;4.97;;
4365;SDS011;2196;47.422;9.656;2023-04-30T00:29:09;5.30;;;5.00;;
4365;SDS011;2196;47.422;9.656;2023-04-30T00:31:37;4.40;;;4.00;;
4365;SDS011;2196;47.422;9.656;2023-04-30T00:34:04;4.77;;;4.23;;
4365;SDS011;2196;47.422;9.656;2023-04-30T00:36:32;5.10;;;4.77;;
4365;SDS011;2196;47.422;9.656;2023-04-30T00:38:59;5.93;;;5.40;;
4365;SDS011;2196;47.422;9.656;2023-04-30T00:41:27;5.30;;;4.90;;
4365;SDS011;2196;47.422;9.656;2023-04-30T00:43:55;5.57;;;5.07;;
4365;SDS011;2196;47.422;9.656;2023-04-30T00:46:22;4.97;;;4.57;;
4365;SDS011;2196;47.422;9.656;2023-04-30T00:48:49;5.10;;;4.70;;
4365;SDS011;2196;47.422;9.656;2023-04-30T00:51:16;5.93;;;5.37;;
4365;SDS011;2196;47.422;9.656;2023-04-30T00:53:45;7.00;;;6.40;;
4365;SDS011;2196;47.422;9.656;2023-04-30T00:56:12;6.33;;;5.73;;
4365;SDS011;2196;47.422;9.656;2023-04-30T00:58:41;7.00;;;5.40;;
4365;SDS011;2196;47.422;9.656;2023-04-30T01:01:08;5.73;;;5.23;;
4365;SDS011;2196;47.422;9.656;2023-04-30T01:03:35;5.87;;;5.23;;
4365;SDS011;2196;47.422;9.656;2023-04-30T01:06:02;6.23;;;5.20;;
4365;SDS011;2196;47.422;9.656;2023-04-30T01:08:29;6.50;;;5.90;;
4365;SDS011;2196;47.422;9.656;2023-04-30T01:11:02;5.80;;;4.93;;
4365;SDS011;2196;47.422;9.656;2023-04-30T01:13:39;6.53;;;6.07;;
4365;SDS011;2196;47.422;9.656;2023-04-30T01:16:12;6.23;;;5.83;;
4365;SDS011;2196;47.422;9.656;2023-04-30T01:18:45;6.17;;;5.40;;
4365;SDS011;2196;47.422;9.656;2023-04-30T01:21:17;6.33;;;5.83;;
4365;SDS011;2196;47.422;9.656;2023-04-30T01:23:54;5.93;;;4.77;;
4365;SDS011;2196;47.422;9.656;2023-04-30T01:26:52;9.87;;;6.10;;
4365;SDS011;2196;47.422;9.656;2023-04-30T01:29:33;6.27;;;5.77;;
4365;SDS011;2196;47.422;9.656;2023-04-30T01:32:01;6.80;;;6.10;;
4365;SDS011;2196;47.422;9.656;2023-04-30T01:34:28;7.23;;;6.17;;
4365;SDS011;2196;47.422;9.656;2023-04-30T01:37:00;6.03;;;5.53;;
4365;SDS011;2196;47.422;9.656;2023-04-30T01:39:39;6.30;;;5.33;;
4365;SDS011;2196;47.422;9.656;2023-04-30T01:42:17;6.27;;;5.67;;
4365;SDS011;2196;47.422;9.656;2023-04-30T01:45:00;5.73;;;5.23;;
4365;SDS011;2196;47.422;9.656;2023-04-30T01:47:54;6.27;;;5.77;;
4365;SDS011;2196;47.422;9.656;2023-04-30T01:50:36;5.87;;;5.47;;
4365;SDS011;2196;47.422;9.656;2023-04-30T01:53:09;6.40;;;5.77;;
4365;SDS011;2196;47.422;9.656;2023-04-30T01:55:42;5.67;;;5.27;;
4365;SDS011;2196;47.422;9.656;2023-04-30T01:58:15;5.87;;;5.37;;
4365;SDS011;2196;47.422;9.656;2023-04-30T02:00:44;7.03;;;6.43;;
4365;SDS011;2196;47.422;9.656;2023-04-30T02:03:11;5.77;;;5.23;;
4365;SDS011;2196;47.422;9.656;2023-04-30T02:05:38;5.87;;;5.00;;
4365;SDS011;2196;47.422;9.656;2023-04-30T02:08:05;5.00;;;4.60;;
4365;SDS011;2196;47.422;9.656;2023-04-30T02:10:32;6.37;;;5.73;;
4365;SDS011;2196;47.422;9.656;2023-04-30T02:12:59;5.73;;;5.23;;
4365;SDS011;2196;47.422;9.656;2023-04-30T02:15:26;6.40;;;5.90;;
4365;SDS011;2196;47.422;9.656;2023-04-30T02:17:55;5.90;;;5.40;;
4365;SDS011;2196;47.422;9.656;2023-04-30T02:20:21;6.00;;;5.33;;
4365;SDS011;2196;47.422;9.656;2023-04-30T02:22:49;5.63;;;5.20;;
4365;SDS011;2196;47.422;9.656;2023-04-30T02:25:16;6.67;;;5.70;;
4365;SDS011;2196;47.422;9.656;2023-04-30T02:27:43;5.60;;;5.20;;
4365;SDS011;2196;47.422;9.656;2023-04-30T02:30:10;6.83;;;6.10;;
4365;SDS011;2196;47.422;9.656;2023-04-30T02:32:37;6.80;;;6.17;;
4365;SDS011;2196;47.422;9.656;2023-04-30T02:35:06;5.77;;;5.27;;
4365;SDS011;2196;47.422;9.656;2023-04-30T02:37:33;7.83;;;5.73;;
4365;SDS011;2196;47.422;9.656;2023-04-30T02:40:00;5.77;;;5.27;;
4365;SDS011;2196;47.422;9.656;2023-04-30T02:42:27;7.07;;;5.93;;
4365;SDS011;2196;47.422;9.656;2023-04-30T02:44:54;6.77;;;6.17;;
4365;SDS011;2196;47.422;9.656;2023-04-30T02:47:21;6.33;;;5.53;;
4365;SDS011;2196;47.422;9.656;2023-04-30T02:49:48;6.47;;;5.57;;
4365;SDS011;2196;47.422;9.656;2023-04-30T02:52:17;6.70;;;5.80;;
4365;SDS011;2196;47.422;9.656;2023-04-30T02:54:44;5.57;;;5.07;;
4365;SDS011;2196;47.422;9.656;2023-04-30T02:57:11;6.87;;;6.10;;
4365;SDS011;2196;47.422;9.656;2023-04-30T02:59:38;7.70;;;6.20;;
4365;SDS011;2196;47.422;9.656;2023-04-30T03:02:09;6.60;;;6.00;;
4365;SDS011;2196;47.422;9.656;2023-04-30T03:04:36;11.00;;;6.23;;
4365;SDS011;2196;47.422;9.656;2023-04-30T03:07:03;7.33;;;6.33;;
4365;SDS011;2196;47.422;9.656;2023-04-30T03:09:33;6.90;;;6.20;;
4365;SDS011;2196;47.422;9.656;2023-04-30T03:12:00;6.50;;;5.77;;
4365;SDS011;2196;47.422;9.656;2023-04-30T03:14:27;6.40;;;5.63;;
4365;SDS011;2196;47.422;9.656;2023-04-30T03:16:54;7.63;;;6.23;;
4365;SDS011;2196;47.422;9.656;2023-04-30T03:19:21;6.83;;;6.23;;
4365;SDS011;2196;47.422;9.656;2023-04-30T03:21:49;8.37;;;6.90;;
4365;SDS011;2196;47.422;9.656;2023-04-30T03:24:16;6.40;;;5.80;;
4365;SDS011;2196;47.422;9.656;2023-04-30T03:26:45;7.00;;;6.40;;
4365;SDS011;2196;47.422;9.656;2023-04-30T03:29:12;7.83;;;6.50;;
4365;SDS011;2196;47.422;9.656;2023-04-30T03:31:39;7.00;;;6.33;;
4365;SDS011;2196;47.422;9.656;2023-04-30T03:34:06;6.17;;;5.50;;
4365;SDS011;2196;47.422;9.656;2023-04-30T03:36:33;7.03;;;6.33;;
4365;SDS011;2196;47.422;9.656;2023-04-30T03:39:00;7.57;;;6.33;;
4365;SDS011;2196;47.422;9.656;2023-04-30T03:41:28;9.30;;;6.80;;
4365;SDS011;2196;47.422;9.656;2023-04-30T03:43:57;7.27;;;6.23;;
4365;SDS011;2196;47.422;9.656;2023-04-30T03:46:24;6.67;;;5.97;;
4365;SDS011;2196;47.422;9.656;2023-04-30T03:48:51;8.97;;;7.07;;
4365;SDS011;2196;47.422;9.656;2023-04-30T03:51:18;7.37;;;6.60;;
4365;SDS011;2196;47.422;9.656;2023-04-30T03:53:46;8.27;;;6.40;;
4365;SDS011;2196;47.422;9.656;2023-04-30T03:56:13;7.03;;;6.33;;
4365;SDS011;2196;47.422;9.656;2023-04-30T03:58:40;7.47;;;5.63;;
4365;SDS011;2196;47.422;9.656;2023-04-30T04:01:09;6.67;;;6.07;;
4365;SDS011;2196;47.422;9.656;2023-04-30T04:03:36;7.63;;;6.83;;
4365;SDS011;2196;47.422;9.656;2023-04-30T04:06:03;9.57;;;6.47;;
4365;SDS011;2196;47.422;9.656;2023-04-30T04:08:30;6.40;;;5.80;;
4365;SDS011;2196;47.422;9.656;2023-04-30T04:10:58;6.67;;;5.77;;
4365;SDS011;2196;47.422;9.656;2023-04-30T04:13:25;6.70;;;6.10;;
4365;SDS011;2196;47.422;9.656;2023-04-30T04:15:52;8.50;;;6.17;;
4365;SDS011;2196;47.422;9.656;2023-04-30T04:18:20;6.73;;;6.07;;
4365;SDS011;2196;47.422;9.656;2023-04-30T04:20:47;6.00;;;5.40;;
4365;SDS011;2196;47.422;9.656;2023-04-30T04:23:14;9.00;;;6.37;;
4365;SDS011;2196;47.422;9.656;2023-04-30T04:25:41;6.83;;;6.07;;
4365;SDS011;2196;47.422;9.656;2023-04-30T04:28:08;7.83;;;6.67;;
4365;SDS011;2196;47.422;9.656;2023-04-30T04:30:35;8.03;;;7.33;;
4365;SDS011;2196;47.422;9.656;2023-04-30T04:33:04;9.37;;;7.00;;
4365;SDS011;2196;47.422;9.656;2023-04-30T04:35:32;6.77;;;6.10;;
4365;SDS011;2196;47.422;9.656;2023-04-30T04:37:59;7.20;;;6.37;;
4365;SDS011;2196;47.422;9.656;2023-04-30T04:40:26;7.30;;;6.47;;
4365;SDS011;2196;47.422;9.656;2023-04-30T04:42:53;6.07;;;5.47;;
4365;SDS011;2196;47.422;9.656;2023-04-30T04:45:20;7.67;;;6.10;;
4365;SDS011;2196;47.422;9.656;2023-04-30T04:47:47;7.40;;;6.10;;
4365;SDS011;2196;47.422;9.656;2023-04-30T04:50:15;6.27;;;5.57;;
4365;SDS011;2196;47.422;9.656;2023-04-30T04:52:43;7.20;;;6.50;;
4365;SDS011;2196;47.422;9.656;2023-04-30T04:55:10;6.53;;;5.93;;
4365;SDS011;2196;47.422;9.656;2023-04-30T04:57:37;6.37;;;5.77;;
4365;SDS011;2196;47.422;9.656;2023-04-30T05:00:06;6.77;;;6.07;;
4365;SDS011;2196;47.422;9.656;2023-04-30T05:02:34;7.73;;;6.10;;
4365;SDS011;2196;47.422;9.656;2023-04-30T05:05:01;7.77;;;6.80;;
4365;SDS011;2196;47.422;9.656;2023-04-30T05:07:28;6.70;;;6.10;;
4365;SDS011;2196;47.422;9.656;2023-04-30T05:09:57;8.70;;;6.70;;
4365;SDS011;2196;47.422;9.656;2023-04-30T05:12:24;7.10;;;6.40;;
4365;SDS011;2196;47.422;9.656;2023-04-30T05:14:54;8.10;;;6.83;;
4365;SDS011;2196;47.422;9.656;2023-04-30T05:17:21;8.30;;;7.33;;
4365;SDS011;2196;47.422;9.656;2023-04-30T05:19:51;7.97;;;7.17;;
4365;SDS011;2196;47.422;9.656;2023-04-30T05:22:18;7.47;;;5.93;;
4365;SDS011;2196;47.422;9.656;2023-04-30T05:24:45;6.10;;;5.57;;
4365;SDS011;2196;47.422;9.656;2023-04-30T05:27:14;8.00;;;7.20;;
4365;SDS011;2196;47.422;9.656;2023-04-30T05:29:41;6.03;;;5.43;;
4365;SDS011;2196;47.422;9.656;2023-04-30T05:32:08;7.10;;;6.03;;
4365;SDS011;2196;47.422;9.656;2023-04-30T05:34:35;6.53;;;5.70;;
4365;SDS011;2196;47.422;9.656;2023-04-30T05:37:02;6.60;;;5.97;;
4365;SDS011;2196;47.422;9.656;2023-04-30T05:39:29;5.87;;;5.37;;
4365;SDS011;2196;47.422;9.656;2023-04-30T05:41:56;6.57;;;6.03;;
4365;SDS011;2196;47.422;9.656;2023-04-30T05:44:24;6.10;;;5.40;;
4365;SDS011;2196;47.422;9.656;2023-04-30T05:46:54;6.70;;;6.00;;
4365;SDS011;2196;47.422;9.656;2023-04-30T05:49:21;5.97;;;5.50;;
4365;SDS011;2196;47.422;9.656;2023-04-30T05:51:48;5.97;;;5.57;;
4365;SDS011;2196;47.422;9.656;2023-04-30T05:54:15;6.87;;;6.27;;
4365;SDS011;2196;47.422;9.656;2023-04-30T05:56:42;6.37;;;5.87;;
4365;SDS011;2196;47.422;9.656;2023-04-30T05:59:09;6.87;;;6.30;;
4365;SDS011;2196;47.422;9.656;2023-04-30T06:01:37;7.17;;;6.50;;
4365;SDS011;2196;47.422;9.656;2023-04-30T06:04:04;7.07;;;6.47;;
4365;SDS011;2196;47.422;9.656;2023-04-30T06:06:31;6.80;;;5.60;;
4365;SDS011;2196;47.422;9.656;2023-04-30T06:08:58;6.30;;;5.37;;
4365;SDS011;2196;47.422;9.656;2023-04-30T06:11:24;7.63;;;6.93;;
4365;SDS011;2196;47.422;9.656;2023-04-30T06:13:51;6.27;;;5.77;;
4365;SDS011;2196;47.422;9.656;2023-04-30T06:16:18;8.13;;;7.40;;
4365;SDS011;2196;47.422;9.656;2023-04-30T06:18:47;7.50;;;6.80;;
4365;SDS011;2196;47.422;9.656;2023-04-30T06:21:14;8.07;;;5.97;;
4365;SDS011;2196;47.422;9.656;2023-04-30T06:23:41;7.40;;;6.80;;
4365;SDS011;2196;47.422;9.656;2023-04-30T06:26:08;6.90;;;6.30;;
4365;SDS011;2196;47.422;9.656;2023-04-30T06:28:34;6.67;;;6.07;;
4365;SDS011;2196;47.422;9.656;2023-04-30T06:31:01;6.20;;;5.57;;
4365;SDS011;2196;47.422;9.656;2023-04-30T06:33:28;6.23;;;5.83;;
4365;SDS011;2196;47.422;9.656;2023-04-30T06:35:57;5.63;;;5.13;;
4365;SDS011;2196;47.422;9.656;2023-04-30T06:38:24;6.60;;;6.07;;
4365;SDS011;2196;47.422;9.656;2023-04-30T06:40:50;6.47;;;6.07;;
4365;SDS011;2196;47.422;9.656;2023-04-30T06:43:17;6.23;;;5.63;;
4365;SDS011;2196;47.422;9.656;2023-04-30T06:45:45;6.10;;;5.60;;
4365;SDS011;2196;47.422;9.656;2023-04-30T06:48:12;6.30;;;5.70;;
4365;SDS011;2196;47.422;9.656;2023-04-30T06:50:39;5.63;;;5.13;;
4365;SDS011;2196;47.422;9.656;2023-04-30T06:53:10;7.33;;;6.73;;
4365;SDS011;2196;47.422;9.656;2023-04-30T06:55:37;4.87;;;4.57;;
4365;SDS011;2196;47.422;9.656;2023-04-30T06:58:05;4.90;;;4.60;;
4365;SDS011;2196;47.422;9.656;2023-04-30T07:00:32;5.33;;;4.93;;
4365;SDS011;2196;47.422;9.656;2023-04-30T07:02:59;5.97;;;5.47;;
4365;SDS011;2196;47.422;9.656;2023-04-30T07:05:27;5.13;;;4.70;;
4365;SDS011;2196;47.422;9.656;2023-04-30T07:07:54;5.60;;;5.20;;
4365;SDS011;2196;47.422;9.656;2023-04-30T07:10:23;4.67;;;4.37;;
4365;SDS011;2196;47.422;9.656;2023-04-30T07:12:50;4.77;;;4.37;;
4365;SDS011;2196;47.422;9.656;2023-04-30T07:15:17;4.30;;;4.10;;
4365;SDS011;2196;47.422;9.656;2023-04-30T07:17:44;4.90;;;4.67;;
4365;SDS011;2196;47.422;9.656;2023-04-30T07:20:11;5.10;;;4.67;;
4365;SDS011;2196;47.422;9.656;2023-04-30T07:22:39;5.40;;;5.00;;
4365;SDS011;2196;47.422;9.656;2023-04-30T07:25:08;6.53;;;4.60;;
4365;SDS011;2196;47.422;9.656;2023-04-30T07:27:37;4.93;;;4.73;;
4365;SDS011;2196;47.422;9.656;2023-04-30T07:30:04;8.30;;;5.43;;
4365;SDS011;2196;47.422;9.656;2023-04-30T07:32:33;4.83;;;4.43;;
4365;SDS011;2196;47.422;9.656;2023-04-30T07:35:00;5.23;;;4.93;;
4365;SDS011;2196;47.422;9.656;2023-04-30T07:37:27;5.17;;;4.87;;
4365;SDS011;2196;47.422;9.656;2023-04-30T07:39:54;6.73;;;6.07;;
4365;SDS011;2196;47.422;9.656;2023-04-30T07:42:22;4.63;;;4.33;;
4365;SDS011;2196;47.422;9.656;2023-04-30T07:44:50;6.07;;;5.57;;
4365;SDS011;2196;47.422;9.656;2023-04-30T07:47:17;5.57;;;5.17;;
4365;SDS011;2196;47.422;9.656;2023-04-30T07:49:45;4.40;;;4.20;;
4365;SDS011;2196;47.422;9.656;2023-04-30T07:52:12;5.27;;;4.97;;
4365;SDS011;2196;47.422;9.656;2023-04-30T07:54:39;4.70;;;4.40;;
4365;SDS011;2196;47.422;9.656;2023-04-30T07:57:06;4.67;;;4.27;;
4365;SDS011;2196;47.422;9.656;2023-04-30T07:59:33;3.50;;;3.40;;
4365;SDS011;2196;47.422;9.656;2023-04-30T08:02:01;4.83;;;4.40;;
4365;SDS011;2196;47.422;9.656;2023-04-30T08:04:28;3.87;;;3.77;;
4365;SDS011;2196;47.422;9.656;2023-04-30T08:06:55;4.77;;;4.47;;
4365;SDS011;2196;47.422;9.656;2023-04-30T08:09:22;3.50;;;3.40;;
4365;SDS011;2196;47.422;9.656;2023-04-30T08:11:49;4.33;;;3.60;;
4365;SDS011;2196;47.422;9.656;2023-04-30T08:14:17;4.27;;;3.93;;
4365;SDS011;2196;47.422;9.656;2023-04-30T08:16:44;4.20;;;3.80;;
4365;SDS011;2196;47.422;9.656;2023-04-30T08:19:12;2.90;;;2.87;;
4365;SDS011;2196;47.422;9.656;2023-04-30T08:21:39;3.27;;;3.17;;
4365;SDS011;2196;47.422;9.656;2023-04-30T08:24:07;3.83;;;3.57;;
4365;SDS011;2196;47.422;9.656;2023-04-30T08:26:33;2.93;;;2.83;;
4365;SDS011;2196;47.422;9.656;2023-04-30T08:29:00;3.37;;;3.23;;
4365;SDS011;2196;47.422;9.656;2023-04-30T08:31:27;4.77;;;4.47;;
4365;SDS011;2196;47.422;9.656;2023-04-30T08:33:54;3.80;;;3.70;;
4365;SDS011;2196;47.422;9.656;2023-04-30T08:36:23;3.43;;;3.33;;
4365;SDS011;2196;47.422;9.656;2023-04-30T08:38:51;4.07;;;3.80;;
4365;SDS011;2196;47.422;9.656;2023-04-30T08:41:19;3.60;;;3.50;;
4365;SDS011;2196;47.422;9.656;2023-04-30T08:43:51;4.03;;;3.83;;
4365;SDS011;2196;47.422;9.656;2023-04-30T08:46:19;4.77;;;4.53;;
4365;SDS011;2196;47.422;9.656;2023-04-30T08:48:47;4.00;;;3.60;;
4365;SDS011;2196;47.422;9.656;2023-04-30T08:51:14;4.27;;;4.03;;
4365;SDS011;2196;47.422;9.656;2023-04-30T08:53:42;3.60;;;3.50;;
4365;SDS011;2196;47.422;9.656;2023-04-30T08:56:11;3.50;;;3.40;;
4365;SDS011;2196;47.422;9.656;2023-04-30T08:58:38;2.80;;;2.70;;
4365;SDS011;2196;47.422;9.656;2023-04-30T09:01:07;3.47;;;3.27;;
4365;SDS011;2196;47.422;9.656;2023-04-30T09:03:35;3.63;;;3.33;;
4365;SDS011;2196;47.422;9.656;2023-04-30T09:06:02;3.10;;;3.00;;
4365;SDS011;2196;47.422;9.656;2023-04-30T09:08:43;3.17;;;3.07;;
4365;SDS011;2196;47.422;9.656;2023-04-30T09:11:22;2.90;;;2.77;;
4365;SDS011;2196;47.422;9.656;2023-04-30T09:13:49;4.00;;;3.80;;
4365;SDS011;2196;47.422;9.656;2023-04-30T09:16:17;3.23;;;3.13;;
4365;SDS011;2196;47.422;9.656;2023-04-30T09:18:45;3.30;;;3.10;;
4365;SDS011;2196;47.422;9.656;2023-04-30T09:21:12;2.90;;;2.80;;
4365;SDS011;2196;47.422;9.656;2023-04-30T09:23:54;2.90;;;2.70;;
4365;SDS011;2196;47.422;9.656;2023-04-30T09:26:25;2.67;;;2.57;;
4365;SDS011;2196;47.422;9.656;2023-04-30T09:28:53;3.33;;;3.23;;
4365;SDS011;2196;47.422;9.656;2023-04-30T09:31:22;3.05;;;2.88;;
4365;SDS011;2196;47.422;9.656;2023-04-30T09:33:50;3.27;;;3.13;;
4365;SDS011;2196;47.422;9.656;2023-04-30T09:36:18;2.23;;;2.13;;
4365;SDS011;2196;47.422;9.656;2023-04-30T09:38:45;2.17;;;2.07;;
4365;SDS011;2196;47.422;9.656;2023-04-30T09:41:23;2.57;;;2.47;;
4365;SDS011;2196;47.422;9.656;2023-04-30T09:43:52;3.07;;;2.77;;
4365;SDS011;2196;47.422;9.656;2023-04-30T09:46:19;2.40;;;2.30;;
4365;SDS011;2196;47.422;9.656;2023-04-30T09:48:55;2.67;;;2.53;;
4365;SDS011;2196;47.422;9.656;2023-04-30T09:51:22;2.33;;;2.20;;
4365;SDS011;2196;47.422;9.656;2023-04-30T09:53:51;2.87;;;2.77;;
4365;SDS011;2196;47.422;9.656;2023-04-30T09:56:19;2.30;;;2.20;;
4365;SDS011;2196;47.422;9.656;2023-04-30T09:58:50;2.23;;;2.13;;
4365;SDS011;2196;47.422;9.656;2023-04-30T10:01:18;1.97;;;1.97;;
4365;SDS011;2196;47.422;9.656;2023-04-30T10:03:46;1.77;;;1.77;;
4365;SDS011;2196;47.422;9.656;2023-04-30T10:06:14;2.30;;;2.20;;
4365;SDS011;2196;47.422;9.656;2023-04-30T10:08:43;2.97;;;2.77;;
4365;SDS011;2196;47.422;9.656;2023-04-30T10:11:14;1.90;;;1.80;;
4365;SDS011;2196;47.422;9.656;2023-04-30T10:13:46;1.63;;;1.63;;
4365;SDS011;2196;47.422;9.656;2023-04-30T10:16:23;1.90;;;1.90;;
4365;SDS011;2196;47.422;9.656;2023-04-30T10:18:54;2.13;;;2.13;;
4365;SDS011;2196;47.422;9.656;2023-04-30T10:21:25;2.23;;;2.03;;
4365;SDS011;2196;47.422;9.656;2023-04-30T10:23:53;2.70;;;2.50;;
4365;SDS011;2196;47.422;9.656;2023-04-30T10:26:20;2.20;;;2.10;;
4365;SDS011;2196;47.422;9.656;2023-04-30T10:28:49;1.97;;;1.87;;
4365;SDS011;2196;47.422;9.656;2023-04-30T10:31:19;2.73;;;2.63;;
4365;SDS011;2196;47.422;9.656;2023-04-30T10:33:50;2.03;;;1.92;;
4365;SDS011;2196;47.422;9.656;2023-04-30T10:36:25;1.97;;;1.87;;
4365;SDS011;2196;47.422;9.656;2023-04-30T10:38:58;1.73;;;1.73;;
4365;SDS011;2196;47.422;9.656;2023-04-30T10:41:26;2.00;;;1.80;;
4365;SDS011;2196;47.422;9.656;2023-04-30T10:43:55;2.37;;;2.00;;
4365;SDS011;2196;47.422;9.656;2023-04-30T10:46:25;1.63;;;1.63;;
4365;SDS011;2196;47.422;9.656;2023-04-30T10:48:52;1.20;;;1.20;;
4365;SDS011;2196;47.422;9.656;2023-04-30T10:51:20;1.50;;;1.50;;
4365;SDS011;2196;47.422;9.656;2023-04-30T10:53:48;1.90;;;1.80;;
4365;SDS011;2196;47.422;9.656;2023-04-30T10:56:28;1.90;;;1.90;;
4365;SDS011;2196;47.422;9.656;2023-04-30T10:58:57;1.60;;;1.50;;
4365;SDS011;2196;47.422;9.656;2023-04-30T11:01:27;1.70;;;1.70;;
4365;SDS011;2196;47.422;9.656;2023-04-30T11:04:04;1.60;;;1.60;;
4365;SDS011;2196;47.422;9.656;2023-04-30T11:06:49;1.87;;;1.70;;
4365;SDS011;2196;47.422;9.656;2023-04-30T11:09:23;1.83;;;1.73;;
4365;SDS011;2196;47.422;9.656;2023-04-30T11:12:01;1.97;;;1.50;;
4365;SDS011;2196;47.422;9.656;2023-04-30T11:14:30;1.23;;;1.23;;
4365;SDS011;2196;47.422;9.656;2023-04-30T11:16:59;1.47;;;1.47;;
4365;SDS011;2196;47.422;9.656;2023-04-30T11:19:27;1.40;;;1.40;;
4365;SDS011;2196;47.422;9.656;2023-04-30T11:24:54;1.57;;;1.57;;
4365;SDS011;2196;47.422;9.656;2023-04-30T11:27:30;1.73;;;1.63;;
4365;SDS011;2196;47.422;9.656;2023-04-30T11:29:58;1.90;;;1.63;;
4365;SDS011;2196;47.422;9.656;2023-04-30T11:32:30;1.43;;;1.43;;
4365;SDS011;2196;47.422;9.656;2023-04-30T11:34:59;1.10;;;1.10;;
4365;SDS011;2196;47.422;9.656;2023-04-30T11:37:30;1.37;;;1.37;;
4365;SDS011;2196;47.422;9.656;2023-04-30T11:39:59;1.40;;;1.30;;
4365;SDS011;2196;47.422;9.656;2023-04-30T11:42:28;1.67;;;1.57;;
4365;SDS011;2196;47.422;9.656;2023-04-30T11:45:02;2.30;;;1.60;;
4365;SDS011;2196;47.422;9.656;2023-04-30T11:47:38;1.67;;;1.53;;
4365;SDS011;2196;47.422;9.656;2023-04-30T11:50:10;1.57;;;1.57;;
4365;SDS011;2196;47.422;9.656;2023-04-30T11:52:38;1.27;;;1.17;;
4365;SDS011;2196;47.422;9.656;2023-04-30T11:55:07;1.20;;;1.20;;
4365;SDS011;2196;47.422;9.656;2023-04-30T11:57:39;1.83;;;1.83;;
4365;SDS011;2196;47.422;9.656;2023-04-30T12:00:11;1.10;;;1.10;;
4365;SDS011;2196;47.422;9.656;2023-04-30T12:02:41;1.47;;;1.40;;
4365;SDS011;2196;47.422;9.656;2023-04-30T12:05:13;1.20;;;1.20;;
4365;SDS011;2196;47.422;9.656;2023-04-30T12:07:47;1.37;;;1.37;;
4365;SDS011;2196;47.422;9.656;2023-04-30T12:10:17;1.90;;;1.30;;
4365;SDS011;2196;47.422;9.656;2023-04-30T12:12:45;1.20;;;1.20;;
4365;SDS011;2196;47.422;9.656;2023-04-30T12:15:14;1.67;;;1.67;;
4365;SDS011;2196;47.422;9.656;2023-04-30T12:17:44;3.53;;;1.63;;
4365;SDS011;2196;47.422;9.656;2023-04-30T12:20:11;1.40;;;1.40;;
4365;SDS011;2196;47.422;9.656;2023-04-30T12:22:40;1.50;;;1.50;;
4365;SDS011;2196;47.422;9.656;2023-04-30T12:25:10;1.67;;;1.57;;
4365;SDS011;2196;47.422;9.656;2023-04-30T12:27:39;1.00;;;1.00;;
4365;SDS011;2196;47.422;9.656;2023-04-30T12:30:07;4.10;;;1.30;;
4365;SDS011;2196;47.422;9.656;2023-04-30T12:32:38;1.00;;;1.00;;
4365;SDS011;2196;47.422;9.656;2023-04-30T12:35:08;1.43;;;1.43;;
4365;SDS011;2196;47.422;9.656;2023-04-30T12:37:40;1.30;;;1.30;;
4365;SDS011;2196;47.422;9.656;2023-04-30T12:40:08;2.10;;;1.63;;
4365;SDS011;2196;47.422;9.656;2023-04-30T12:42:36;2.37;;;1.97;;
4365;SDS011;2196;47.422;9.656;2023-04-30T12:45:03;1.83;;;1.73;;
4365;SDS011;2196;47.422;9.656;2023-04-30T12:47:31;2.30;;;2.20;;
4365;SDS011;2196;47.422;9.656;2023-04-30T12:50:03;2.50;;;1.33;;
4365;SDS011;2196;47.422;9.656;2023-04-30T12:52:33;2.63;;;1.37;;
4365;SDS011;2196;47.422;9.656;2023-04-30T12:55:12;2.03;;;1.93;;
4365;SDS011;2196;47.422;9.656;2023-04-30T12:57:40;1.63;;;1.63;;
4365;SDS011;2196;47.422;9.656;2023-04-30T13:00:07;1.37;;;1.27;;
4365;SDS011;2196;47.422;9.656;2023-04-30T13:02:35;1.20;;;1.20;;
4365;SDS011;2196;47.422;9.656;2023-04-30T13:05:02;1.20;;;1.20;;
4365;SDS011;2196;47.422;9.656;2023-04-30T13:07:36;1.20;;;1.20;;
4365;SDS011;2196;47.422;9.656;2023-04-30T13:10:05;1.47;;;1.07;;
4365;SDS011;2196;47.422;9.656;2023-04-30T13:12:32;1.30;;;1.30;;
4365;SDS011;2196;47.422;9.656;2023-04-30T13:14:59;1.43;;;1.27;;
4365;SDS011;2196;47.422;9.656;2023-04-30T13:17:27;1.60;;;1.50;;
4365;SDS011;2196;47.422;9.656;2023-04-30T13:19:54;1.47;;;1.47;;
4365;SDS011;2196;47.422;9.656;2023-04-30T13:24:50;1.60;;;1.50;;
4365;SDS011;2196;47.422;9.656;2023-04-30T13:27:17;1.40;;;1.40;;
4365;SDS011;2196;47.422;9.656;2023-04-30T13:29:44;1.20;;;1.20;;
4365;SDS011;2196;47.422;9.656;2023-04-30T13:32:11;1.87;;;1.87;;
4365;SDS011;2196;47.422;9.656;2023-04-30T13:34:39;1.10;;;1.10;;
4365;SDS011;2196;47.422;9.656;2023-04-30T13:37:05;1.20;;;1.20;;
4365;SDS011;2196;47.422;9.656;2023-04-30T13:39:32;1.43;;;1.33;;
4365;SDS011;2196;47.422;9.656;2023-04-30T13:42:01;1.13;;;1.13;;
4365;SDS011;2196;47.422;9.656;2023-04-30T13:44:28;1.10;;;1.10;;
4365;SDS011;2196;47.422;9.656;2023-04-30T13:46:56;1.33;;;1.33;;
4365;SDS011;2196;47.422;9.656;2023-04-30T13:49:23;1.43;;;1.33;;
4365;SDS011;2196;47.422;9.656;2023-04-30T13:51:50;1.77;;;1.67;;
4365;SDS011;2196;47.422;9.656;2023-04-30T13:54:17;1.50;;;1.50;;
4365;SDS011;2196;47.422;9.656;2023-04-30T13:56:44;1.33;;;1.20;;
4365;SDS011;2196;47.422;9.656;2023-04-30T13:59:14;1.20;;;1.20;;
4365;SDS011;2196;47.422;9.656;2023-04-30T14:01:41;2.37;;;1.80;;
4365;SDS011;2196;47.422;9.656;2023-04-30T14:04:08;1.50;;;1.40;;
4365;SDS011;2196;47.422;9.656;2023-04-30T14:06:35;1.37;;;1.37;;
4365;SDS011;2196;47.422;9.656;2023-04-30T14:09:03;1.70;;;1.67;;
4365;SDS011;2196;47.422;9.656;2023-04-30T14:11:30;1.63;;;1.53;;
4365;SDS011;2196;47.422;9.656;2023-04-30T14:13:57;1.30;;;1.20;;
4365;SDS011;2196;47.422;9.656;2023-04-30T14:16:26;1.50;;;1.50;;
4365;SDS011;2196;47.422;9.656;2023-04-30T14:18:54;1.57;;;1.50;;
4365;SDS011;2196;47.422;9.656;2023-04-30T14:21:21;1.67;;;1.67;;
4365;SDS011;2196;47.422;9.656;2023-04-30T14:23:48;1.60;;;1.50;;
4365;SDS011;2196;47.422;9.656;2023-04-30T14:26:16;1.43;;;1.43;;
4365;SDS011;2196;47.422;9.656;2023-04-30T14:28:43;1.90;;;1.90;;
4365;SDS011;2196;47.422;9.656;2023-04-30T14:31:10;1.97;;;1.67;;
4365;SDS011;2196;47.422;9.656;2023-04-30T14:33:38;1.40;;;1.33;;
4365;SDS011;2196;47.422;9.656;2023-04-30T14:36:05;1.30;;;1.30;;
4365;SDS011;2196;47.422;9.656;2023-04-30T14:38:33;1.60;;;1.50;;
4365;SDS011;2196;47.422;9.656;2023-04-30T14:41:00;2.03;;;1.93;;
4365;SDS011;2196;47.422;9.656;2023-04-30T14:43:27;1.67;;;1.67;;
4365;SDS011;2196;47.422;9.656;2023-04-30T14:45:54;2.07;;;2.00;;
4365;SDS011;2196;47.422;9.656;2023-04-30T14:48:21;1.77;;;1.67;;
4365;SDS011;2196;47.422;9.656;2023-04-30T14:50:49;1.73;;;1.70;;
4365;SDS011;2196;47.422;9.656;2023-04-30T14:53:16;1.63;;;1.63;;
4365;SDS011;2196;47.422;9.656;2023-04-30T14:55:43;4.67;;;2.03;;
4365;SDS011;2196;47.422;9.656;2023-04-30T14:58:10;1.77;;;1.77;;
4365;SDS011;2196;47.422;9.656;2023-04-30T15:00:37;1.70;;;1.70;;
4365;SDS011;2196;47.422;9.656;2023-04-30T15:03:04;1.90;;;1.90;;
4365;SDS011;2196;47.422;9.656;2023-04-30T15:05:31;1.83;;;1.83;;
4365;SDS011;2196;47.422;9.656;2023-04-30T15:08:00;1.80;;;1.80;;
4365;SDS011;2196;47.422;9.656;2023-04-30T15:10:27;2.10;;;2.00;;
4365;SDS011;2196;47.422;9.656;2023-04-30T15:12:53;1.60;;;1.60;;
4365;SDS011;2196;47.422;9.656;2023-04-30T15:15:20;1.83;;;1.73;;
4365;SDS011;2196;47.422;9.656;2023-04-30T15:17:52;1.77;;;1.77;;
4365;SDS011;2196;47.422;9.656;2023-04-30T15:20:19;2.33;;;2.23;;
4365;SDS011;2196;47.422;9.656;2023-04-30T15:22:46;1.50;;;1.40;;
4365;SDS011;2196;47.422;9.656;2023-04-30T15:25:16;1.90;;;1.80;;
4365;SDS011;2196;47.422;9.656;2023-04-30T15:27:43;1.67;;;1.67;;
4365;SDS011;2196;47.422;9.656;2023-04-30T15:30:10;2.00;;;1.90;;